createdAt,value
2023-04-16T00:01:15.310Z,19.55
2023-04-16T00:03:44.242Z,17.77
2023-04-16T00:06:13.295Z,15.98
2023-04-16T00:08:42.292Z,17.08
2023-04-16T00:11:11.257Z,22.75
2023-04-16T00:13:39.851Z,27.00
2023-04-16T00:16:08.950Z,23.02
2023-04-16T00:18:37.535Z,17.30
2023-04-16T00:21:06.757Z,17.40
2023-04-16T00:23:35.562Z,16.23
2023-04-16T00:26:04.316Z,20.13
2023-04-16T00:28:33.092Z,16.30
2023-04-16T00:31:02.668Z,14.20
2023-04-16T00:33:31.310Z,12.50
2023-04-16T00:36:00.778Z,18.38
2023-04-16T00:38:31.233Z,16.33
2023-04-16T00:41:00.014Z,12.98
2023-04-16T00:43:28.932Z,22.08
2023-04-16T00:45:58.347Z,18.10
2023-04-16T00:48:32.414Z,12.90
2023-04-16T00:51:05.154Z,18.08
2023-04-16T00:53:35.210Z,38.80
2023-04-16T00:56:05.957Z,15.05
2023-04-16T00:58:36.430Z,13.32
2023-04-16T01:01:05.216Z,11.98
2023-04-16T01:03:42.530Z,10.75
2023-04-16T01:06:12.315Z,14.25
2023-04-16T01:08:41.333Z,13.95
2023-04-16T01:11:12.033Z,15.02
2023-04-16T01:13:40.632Z,12.05
2023-04-16T01:16:10.757Z,11.77
2023-04-16T01:18:40.366Z,10.90
2023-04-16T01:21:09.260Z,16.65
2023-04-16T01:23:38.293Z,17.88
2023-04-16T01:26:07.254Z,15.55
2023-04-16T01:28:36.920Z,15.85
2023-04-16T01:31:05.610Z,16.63
2023-04-16T01:33:47.242Z,19.77
2023-04-16T01:36:16.175Z,18.02
2023-04-16T01:38:44.915Z,17.70
2023-04-16T01:41:13.559Z,12.52
2023-04-16T01:43:43.377Z,17.80
2023-04-16T01:46:22.093Z,16.40
2023-04-16T01:48:50.922Z,13.27
2023-04-16T01:51:20.713Z,15.02
2023-04-16T01:53:51.598Z,16.92
2023-04-16T01:56:20.360Z,12.90
2023-04-16T01:58:49.057Z,15.40
2023-04-16T02:01:19.874Z,13.85
2023-04-16T02:03:49.909Z,15.80
2023-04-16T02:06:19.168Z,17.13
2023-04-16T02:08:48.616Z,16.52
2023-04-16T02:11:17.636Z,20.65
2023-04-16T02:13:47.273Z,15.48
2023-04-16T02:16:17.887Z,14.05
2023-04-16T02:19:01.450Z,19.60
2023-04-16T02:21:33.382Z,17.50
2023-04-16T02:24:02.306Z,19.80
2023-04-16T02:26:32.429Z,19.48
2023-04-16T02:29:07.129Z,19.92
2023-04-16T02:31:44.221Z,28.65
2023-04-16T02:34:14.344Z,19.63
2023-04-16T02:36:43.686Z,21.02
2023-04-16T02:39:12.851Z,19.13
2023-04-16T02:41:41.700Z,17.77
2023-04-16T02:44:10.455Z,38.92
2023-04-16T02:46:39.128Z,41.05
2023-04-16T02:49:08.203Z,21.38
2023-04-16T02:51:37.129Z,20.13
2023-04-16T02:54:06.070Z,22.30
2023-04-16T02:56:34.951Z,13.80
2023-04-16T02:59:07.058Z,12.90
2023-04-16T03:01:36.514Z,12.30
2023-04-16T03:04:05.708Z,10.50
2023-04-16T03:06:34.602Z,8.32
2023-04-16T03:09:03.549Z,18.20
2023-04-16T03:11:32.535Z,21.52
2023-04-16T03:14:01.288Z,26.50
2023-04-16T03:16:30.118Z,13.95
2023-04-16T03:18:59.158Z,8.95
2023-04-16T03:21:28.744Z,16.58
2023-04-16T03:23:58.488Z,9.60
2023-04-16T03:26:27.251Z,14.75
2023-04-16T03:28:57.170Z,15.10
2023-04-16T03:31:26.947Z,11.27
2023-04-16T03:33:56.883Z,12.48
2023-04-16T03:36:27.833Z,10.45
2023-04-16T03:38:56.815Z,27.38
2023-04-16T03:41:28.629Z,12.13
2023-04-16T03:43:57.671Z,21.65
2023-04-16T03:46:26.648Z,11.00
2023-04-16T03:48:55.350Z,16.23
2023-04-16T03:51:24.230Z,13.20
2023-04-16T03:53:53.272Z,10.77
2023-04-16T03:56:22.276Z,15.52
2023-04-16T03:58:52.859Z,10.32
2023-04-16T04:01:21.865Z,18.15
2023-04-16T04:03:52.071Z,15.80
2023-04-16T04:06:21.160Z,13.23
2023-04-16T04:08:50.483Z,23.70
2023-04-16T04:11:20.046Z,18.38
2023-04-16T04:13:49.284Z,26.60
2023-04-16T04:16:18.136Z,24.42
2023-04-16T04:18:49.511Z,9.73
2023-04-16T04:21:18.187Z,15.80
2023-04-16T04:23:47.004Z,22.83
2023-04-16T04:26:16.234Z,6.00
2023-04-16T04:28:47.844Z,8.43
2023-04-16T04:31:19.154Z,8.77
2023-04-16T04:33:48.726Z,6.90
2023-04-16T04:36:18.244Z,17.23
2023-04-16T04:38:47.110Z,11.02
2023-04-16T04:41:16.932Z,13.18
2023-04-16T04:43:46.506Z,8.90
2023-04-16T04:46:15.345Z,7.72
2023-04-16T04:48:47.922Z,15.50
2023-04-16T04:51:18.485Z,12.57
2023-04-16T04:53:49.141Z,15.32
2023-04-16T04:56:20.273Z,9.95
2023-04-16T04:58:51.864Z,10.60
2023-04-16T05:01:21.918Z,10.75
2023-04-16T05:03:50.915Z,8.80
2023-04-16T05:06:20.170Z,13.57
2023-04-16T05:08:49.336Z,15.30
2023-04-16T05:11:18.471Z,5.50
2023-04-16T05:13:47.292Z,15.40
2023-04-16T05:16:16.552Z,6.43
2023-04-16T05:18:45.520Z,21.90
2023-04-16T05:21:14.984Z,8.73
2023-04-16T05:23:43.772Z,9.27
2023-04-16T05:26:12.503Z,12.40
2023-04-16T05:28:41.413Z,13.18
2023-04-16T05:31:10.269Z,4.80
2023-04-16T05:33:39.629Z,13.05
2023-04-16T05:36:11.381Z,29.08
2023-04-16T05:38:40.293Z,8.70
2023-04-16T05:41:09.997Z,16.58
2023-04-16T05:43:38.980Z,16.23
2023-04-16T05:46:07.887Z,10.90
2023-04-16T05:48:38.738Z,7.22
2023-04-16T05:51:07.644Z,12.18
2023-04-16T05:53:36.616Z,15.75
2023-04-16T05:56:05.581Z,14.35
2023-04-16T05:58:35.216Z,17.40
2023-04-16T06:01:04.494Z,17.52
2023-04-16T06:03:34.068Z,19.00
2023-04-16T06:06:03.486Z,44.65
2023-04-16T06:08:34.506Z,13.05
2023-04-16T06:11:10.139Z,9.23
2023-04-16T06:13:41.376Z,22.23
2023-04-16T06:16:10.232Z,31.83
2023-04-16T06:18:39.037Z,18.05
2023-04-16T06:21:07.996Z,14.45
2023-04-16T06:23:36.818Z,9.50
2023-04-16T06:26:06.400Z,12.15
2023-04-16T06:28:35.172Z,7.68
2023-04-16T06:31:04.385Z,20.48
2023-04-16T06:33:33.417Z,4.30
2023-04-16T06:36:02.349Z,11.68
2023-04-16T06:38:34.335Z,17.15
2023-04-16T06:41:03.086Z,21.67
2023-04-16T06:43:34.409Z,8.95
2023-04-16T06:46:03.258Z,17.38
2023-04-16T06:48:32.324Z,11.10
2023-04-16T06:51:02.141Z,35.65
2023-04-16T06:53:31.617Z,27.50
2023-04-16T06:56:03.159Z,29.45
2023-04-16T06:58:34.962Z,25.00
2023-04-16T07:01:07.319Z,7.88
2023-04-16T07:03:36.201Z,15.90
2023-04-16T07:06:05.094Z,7.88
2023-04-16T07:08:33.668Z,8.63
2023-04-16T07:11:02.481Z,15.23
2023-04-16T07:13:31.488Z,6.07
2023-04-16T07:16:00.334Z,7.57
2023-04-16T07:18:29.043Z,12.13
2023-04-16T07:20:58.239Z,6.43
2023-04-16T07:23:26.987Z,8.63
2023-04-16T07:25:56.043Z,8.80
2023-04-16T07:28:26.166Z,6.85
2023-04-16T07:30:54.838Z,9.48
2023-04-16T07:33:23.779Z,18.25
2023-04-16T07:35:52.528Z,15.93
2023-04-16T07:38:21.475Z,21.92
2023-04-16T07:40:50.238Z,7.18
2023-04-16T07:43:18.989Z,8.60
2023-04-16T07:45:47.756Z,4.40
2023-04-16T07:48:16.598Z,9.70
2023-04-16T07:50:45.477Z,18.63
2023-04-16T07:53:14.278Z,17.63
2023-04-16T07:55:42.977Z,13.27
2023-04-16T07:58:11.966Z,8.02
2023-04-16T08:00:41.121Z,16.30
2023-04-16T08:03:10.174Z,10.95
2023-04-16T08:05:39.160Z,9.93
2023-04-16T08:08:07.799Z,12.52
2023-04-16T08:10:36.767Z,8.88
2023-04-16T08:13:05.718Z,19.52
2023-04-16T08:15:34.368Z,8.93
2023-04-16T08:18:03.178Z,12.63
2023-04-16T08:20:32.220Z,35.67
2023-04-16T08:23:01.147Z,10.30
2023-04-16T08:25:30.010Z,14.35
2023-04-16T08:27:58.639Z,18.65
2023-04-16T08:30:27.493Z,10.18
2023-04-16T08:32:56.784Z,9.98
2023-04-16T08:35:25.545Z,11.68
2023-04-16T08:37:55.132Z,12.57
2023-04-16T08:40:26.403Z,19.52
2023-04-16T08:42:59.451Z,10.68
2023-04-16T08:45:28.639Z,8.95
2023-04-16T08:47:58.066Z,12.02
2023-04-16T08:50:27.814Z,5.47
2023-04-16T08:53:01.722Z,8.25
2023-04-16T08:55:50.319Z,8.63
2023-04-16T08:58:20.380Z,6.65
2023-04-16T09:00:50.181Z,6.00
2023-04-16T09:03:22.505Z,11.32
2023-04-16T09:05:51.942Z,6.30
2023-04-16T09:08:21.988Z,8.25
2023-04-16T09:10:51.941Z,4.95
2023-04-16T09:13:21.517Z,22.08
2023-04-16T09:15:57.858Z,4.07
2023-04-16T09:18:26.986Z,3.22
2023-04-16T09:20:57.065Z,3.75
2023-04-16T09:23:25.979Z,7.43
2023-04-16T09:25:55.070Z,8.30
2023-04-16T09:28:49.697Z,11.63
2023-04-16T09:31:20.168Z,9.23
2023-04-16T09:34:06.457Z,9.55
2023-04-16T09:36:36.624Z,10.15
2023-04-16T09:39:05.541Z,6.15
2023-04-16T09:41:40.276Z,7.43
2023-04-16T09:44:09.041Z,9.35
2023-04-16T09:46:42.398Z,6.85
2023-04-16T09:49:16.155Z,6.03
2023-04-16T09:51:47.421Z,9.20
2023-04-16T09:54:16.769Z,10.10
2023-04-16T09:56:47.799Z,6.78
2023-04-16T09:59:23.886Z,14.13
2023-04-16T10:02:07.709Z,14.40
2023-04-16T10:04:51.630Z,6.97
2023-04-16T10:07:21.906Z,30.23
2023-04-16T10:09:54.184Z,8.60
2023-04-16T10:12:23.305Z,23.58
2023-04-16T10:14:52.024Z,18.08
2023-04-16T10:17:22.403Z,13.98
2023-04-16T10:19:52.504Z,23.70
2023-04-16T10:22:24.025Z,14.73
2023-04-16T10:24:54.304Z,22.42
2023-04-16T10:27:23.589Z,10.75
2023-04-16T10:29:52.650Z,10.32
2023-04-16T10:32:22.609Z,2.90
2023-04-16T10:34:51.880Z,11.80
2023-04-16T10:37:20.582Z,7.28
2023-04-16T10:39:50.571Z,8.90
2023-04-16T10:42:19.198Z,5.53
2023-04-16T10:44:47.981Z,8.50
2023-04-16T10:47:16.960Z,4.35
2023-04-16T10:49:48.895Z,4.43
2023-04-16T10:52:18.086Z,9.80
2023-04-16T10:54:50.979Z,14.63
2023-04-16T10:57:21.405Z,7.22
2023-04-16T10:59:50.460Z,5.30
2023-04-16T11:02:19.993Z,12.57
2023-04-16T11:04:50.284Z,7.57
2023-04-16T11:07:21.879Z,6.45
2023-04-16T11:09:55.096Z,5.00
2023-04-16T11:12:43.760Z,10.88
2023-04-16T11:15:15.042Z,11.38
2023-04-16T11:17:53.708Z,13.75
2023-04-16T11:20:30.483Z,3.67
2023-04-16T11:22:59.817Z,6.88
2023-04-16T11:25:30.748Z,7.07
2023-04-16T11:28:00.019Z,6.70
2023-04-16T11:30:37.061Z,12.10
2023-04-16T11:33:08.694Z,14.05
2023-04-16T11:35:37.818Z,7.13
2023-04-16T11:38:10.974Z,8.00
2023-04-16T11:40:39.844Z,12.70
2023-04-16T11:43:16.880Z,8.63
2023-04-16T11:46:16.668Z,3.65
2023-04-16T11:48:54.709Z,9.30
2023-04-16T11:51:24.262Z,6.22
2023-04-16T11:53:54.302Z,4.78
2023-04-16T11:56:29.136Z,7.90
2023-04-16T12:01:49.837Z,8.48
2023-04-16T12:04:21.624Z,6.75
2023-04-16T12:07:06.693Z,5.65
2023-04-16T12:09:39.520Z,7.40
2023-04-16T12:12:32.140Z,12.38
2023-04-16T12:15:04.472Z,5.97
2023-04-16T12:17:34.730Z,5.57
2023-04-16T12:20:09.043Z,5.32
2023-04-16T12:22:42.263Z,8.70
2023-04-16T12:25:16.288Z,17.70
2023-04-16T12:27:56.720Z,8.30
2023-04-16T12:30:27.597Z,7.15
2023-04-16T12:33:19.164Z,6.03
2023-04-16T12:35:48.320Z,11.57
2023-04-16T12:38:17.605Z,17.00
2023-04-16T12:40:46.636Z,12.18
2023-04-16T12:43:15.468Z,15.60
2023-04-16T12:45:44.591Z,14.02
2023-04-16T12:48:13.365Z,13.02
2023-04-16T12:50:45.083Z,20.88
2023-04-16T12:53:13.877Z,32.40
2023-04-16T12:55:43.022Z,12.50
2023-04-16T12:58:12.599Z,15.25
2023-04-16T13:00:41.503Z,9.75
2023-04-16T13:03:10.479Z,13.50
2023-04-16T13:05:39.502Z,15.40
2023-04-16T13:08:08.350Z,10.52
2023-04-16T13:10:37.582Z,12.05
2023-04-16T13:13:06.837Z,9.48
2023-04-16T13:15:35.737Z,6.18
2023-04-16T13:18:04.665Z,6.15
2023-04-16T13:20:34.598Z,10.32
2023-04-16T13:23:05.598Z,35.22
2023-04-16T13:25:34.448Z,25.50
2023-04-16T13:28:03.282Z,18.88
2023-04-16T13:30:32.601Z,14.43
2023-04-16T13:33:01.761Z,20.88
2023-04-16T13:35:31.319Z,25.38
2023-04-16T13:38:00.163Z,16.83
2023-04-16T13:40:29.138Z,7.63
2023-04-16T13:42:58.151Z,8.93
2023-04-16T13:45:28.657Z,12.32
2023-04-16T13:47:57.480Z,8.25
2023-04-16T13:50:26.731Z,19.67
2023-04-16T13:52:58.041Z,25.05
2023-04-16T13:55:27.041Z,12.95
2023-04-16T13:57:57.042Z,17.92
2023-04-16T14:00:28.158Z,34.78
2023-04-16T14:02:57.312Z,47.85
2023-04-16T14:05:27.323Z,45.45
2023-04-16T14:07:56.353Z,33.88
2023-04-16T14:10:25.237Z,37.08
2023-04-16T14:12:54.077Z,20.23
2023-04-16T14:15:22.916Z,13.05
2023-04-16T14:17:51.700Z,17.35
2023-04-16T14:20:20.630Z,23.67
2023-04-16T14:22:49.489Z,44.13
2023-04-16T14:25:18.637Z,58.58
2023-04-16T14:27:47.360Z,70.88
2023-04-16T14:30:17.417Z,84.97
2023-04-16T14:32:46.552Z,51.00
2023-04-16T14:35:15.362Z,49.03
2023-04-16T14:37:44.427Z,35.70
2023-04-16T14:40:13.767Z,48.22
2023-04-16T14:42:42.678Z,58.85
2023-04-16T14:45:11.870Z,42.40
2023-04-16T14:47:46.448Z,32.88
2023-04-16T14:50:16.287Z,42.78
2023-04-16T14:52:45.157Z,23.95
2023-04-16T14:55:14.022Z,28.25
2023-04-16T14:57:43.028Z,28.77
2023-04-16T15:00:12.802Z,28.70
2023-04-16T15:02:41.971Z,36.45
2023-04-16T15:05:11.358Z,50.63
2023-04-16T15:07:40.419Z,39.05
2023-04-16T15:10:10.988Z,56.42
2023-04-16T15:12:40.322Z,42.13
2023-04-16T15:15:10.260Z,39.72
2023-04-16T15:17:41.694Z,45.33
2023-04-16T15:20:14.577Z,47.50
2023-04-16T15:22:44.010Z,43.00
2023-04-16T15:25:13.170Z,49.17
2023-04-16T15:27:41.884Z,39.58
2023-04-16T15:30:13.371Z,40.40
2023-04-16T15:32:42.157Z,41.25
2023-04-16T15:35:11.577Z,45.22
2023-04-16T15:37:40.948Z,56.80
2023-04-16T15:40:09.943Z,48.22
2023-04-16T15:42:38.868Z,51.88
2023-04-16T15:45:07.764Z,277.70
2023-04-16T15:47:37.988Z,141.40
2023-04-16T15:50:09.219Z,100.05
2023-04-16T15:52:39.508Z,56.10
2023-04-16T15:55:08.586Z,52.67
2023-04-16T15:57:37.657Z,93.93
2023-04-16T16:00:17.964Z,48.70
2023-04-16T16:02:48.592Z,40.63
2023-04-16T16:05:18.187Z,42.25
2023-04-16T16:07:47.215Z,38.35
2023-04-16T16:10:16.631Z,40.05
2023-04-16T16:12:45.546Z,47.58
2023-04-16T16:15:14.389Z,59.90
2023-04-16T16:17:43.215Z,50.75
2023-04-16T16:20:13.550Z,292.85
2023-04-16T16:22:45.934Z,109.57
2023-04-16T16:25:15.795Z,65.30
2023-04-16T16:27:45.940Z,151.05
2023-04-16T16:30:14.847Z,51.38
2023-04-16T16:32:46.761Z,113.55
2023-04-16T16:35:16.105Z,80.18
2023-04-16T16:37:44.913Z,115.22
2023-04-16T16:40:13.597Z,275.02
2023-04-16T16:42:42.425Z,50.15
2023-04-16T16:45:11.844Z,126.40
2023-04-16T16:47:40.721Z,96.45
2023-04-16T16:50:12.107Z,48.38
2023-04-16T16:52:41.015Z,102.72
2023-04-16T16:55:11.660Z,223.57
2023-04-16T16:57:40.762Z,201.50
2023-04-16T17:00:14.846Z,290.85
2023-04-16T17:02:44.154Z,102.82
2023-04-16T17:05:13.808Z,144.30
2023-04-16T17:07:42.569Z,200.77
2023-04-16T17:10:13.894Z,271.35
2023-04-16T17:12:42.865Z,109.90
2023-04-16T17:15:12.271Z,96.03
2023-04-16T17:17:41.274Z,74.53
2023-04-16T17:20:11.630Z,74.40
2023-04-16T17:22:41.207Z,69.63
2023-04-16T17:25:10.430Z,73.55
2023-04-16T17:27:42.446Z,69.97
2023-04-16T17:30:11.642Z,75.95
2023-04-16T17:32:40.497Z,100.05
2023-04-16T17:35:10.180Z,171.48
2023-04-16T17:37:39.113Z,90.18
2023-04-16T17:40:08.743Z,79.55
2023-04-16T17:42:37.966Z,129.63
2023-04-16T17:45:07.254Z,130.80
2023-04-16T17:47:37.022Z,85.40
2023-04-16T17:50:06.384Z,71.53
2023-04-16T17:52:35.214Z,116.75
2023-04-16T17:55:07.221Z,70.70
2023-04-16T17:57:36.337Z,63.70
2023-04-16T18:00:15.059Z,67.90
2023-04-16T18:02:44.374Z,60.17
2023-04-16T18:05:13.506Z,69.70
2023-04-16T18:07:42.324Z,55.53
2023-04-16T18:10:11.428Z,52.72
2023-04-16T18:12:40.159Z,47.58
2023-04-16T18:15:09.591Z,68.55
2023-04-16T18:17:38.892Z,56.15
2023-04-16T18:20:10.117Z,63.22
2023-04-16T18:22:39.089Z,60.35
2023-04-16T18:25:08.517Z,75.70
2023-04-16T18:27:37.306Z,101.18
2023-04-16T18:30:19.594Z,112.38
2023-04-16T18:33:16.502Z,122.55
2023-04-16T18:35:41.397Z,124.90
2023-04-16T18:38:14.307Z,137.90
2023-04-16T18:40:43.078Z,175.55
2023-04-16T18:43:11.798Z,221.20
2023-04-16T18:45:40.436Z,251.35
2023-04-16T18:48:09.135Z,214.70
2023-04-16T18:50:38.093Z,206.52
2023-04-16T18:53:06.840Z,179.07
2023-04-16T18:55:35.784Z,173.57
2023-04-16T18:58:04.495Z,212.38
2023-04-16T19:00:33.493Z,186.70
2023-04-16T19:03:07.082Z,160.98
2023-04-16T19:05:36.491Z,180.73
2023-04-16T19:08:05.434Z,183.35
2023-04-16T19:10:34.663Z,170.65
2023-04-16T19:13:03.737Z,189.45
2023-04-16T19:15:34.409Z,175.40
2023-04-16T19:18:03.678Z,156.27
2023-04-16T19:20:35.677Z,159.18
2023-04-16T19:23:09.718Z,149.93
2023-04-16T19:25:38.543Z,134.35
2023-04-16T19:28:07.435Z,135.10
2023-04-16T19:30:36.153Z,135.48
2023-04-16T19:33:04.964Z,125.95
2023-04-16T19:35:35.394Z,125.40
2023-04-16T19:38:03.875Z,129.30
2023-04-16T19:40:32.697Z,134.18
2023-04-16T19:43:01.640Z,130.95
2023-04-16T19:45:30.709Z,105.85
2023-04-16T19:47:59.612Z,112.22
2023-04-16T19:50:28.295Z,104.97
2023-04-16T19:52:56.934Z,85.80
2023-04-16T19:55:25.496Z,96.50
2023-04-16T19:57:54.195Z,73.43
2023-04-16T20:00:23.501Z,79.35
2023-04-16T20:02:52.696Z,57.53
2023-04-16T20:05:21.474Z,25.10
2023-04-16T20:07:52.543Z,15.07
2023-04-16T20:10:21.784Z,20.90
2023-04-16T20:12:51.512Z,82.97
2023-04-16T20:15:20.833Z,23.30
2023-04-16T20:17:49.623Z,17.20
2023-04-16T20:20:18.531Z,18.25
2023-04-16T20:22:47.519Z,14.48
2023-04-16T20:25:19.738Z,10.15
2023-04-16T20:27:48.754Z,8.32
2023-04-16T20:30:17.404Z,19.40
2023-04-16T20:32:46.089Z,7.05
2023-04-16T20:35:14.952Z,3.80
2023-04-16T20:37:44.033Z,13.93
2023-04-16T20:40:14.635Z,3.35
2023-04-16T20:42:46.804Z,5.63
2023-04-16T20:45:18.685Z,3.88
2023-04-16T20:47:47.626Z,6.28
2023-04-16T20:50:16.564Z,3.33
2023-04-16T20:52:47.939Z,4.70
2023-04-16T20:55:16.854Z,4.55
2023-04-16T20:57:45.570Z,3.00
2023-04-16T21:00:16.684Z,3.78
2023-04-16T21:02:45.673Z,4.03
2023-04-16T21:05:15.242Z,3.75
2023-04-16T21:07:44.329Z,4.32
2023-04-16T21:10:13.056Z,3.75
2023-04-16T21:12:41.766Z,3.13
2023-04-16T21:15:10.667Z,3.97
2023-04-16T21:17:39.303Z,4.55
2023-04-16T21:20:11.507Z,4.22
2023-04-16T21:22:40.190Z,8.98
2023-04-16T21:25:09.509Z,4.82
2023-04-16T21:27:40.701Z,5.93
2023-04-16T21:30:09.980Z,7.68
2023-04-16T21:32:39.057Z,5.90
2023-04-16T21:35:08.064Z,8.43
2023-04-16T21:37:36.756Z,6.93
2023-04-16T21:40:06.752Z,8.02
2023-04-16T21:42:42.847Z,13.55
2023-04-16T21:45:11.754Z,8.50
2023-04-16T21:47:40.547Z,13.48
2023-04-16T21:50:09.535Z,7.00
2023-04-16T21:52:46.809Z,5.72
2023-04-16T21:55:15.549Z,5.43
2023-04-16T21:57:44.296Z,8.15
2023-04-16T22:00:14.646Z,7.55
2023-04-16T22:02:43.581Z,6.82
2023-04-16T22:05:12.909Z,6.13
2023-04-16T22:07:42.322Z,4.07
2023-04-16T22:10:13.543Z,3.75
2023-04-16T22:12:46.387Z,5.70
2023-04-16T22:15:15.625Z,7.38
2023-04-16T22:17:44.841Z,4.82
2023-04-16T22:20:13.998Z,4.28
2023-04-16T22:22:43.381Z,6.22
2023-04-16T22:25:12.461Z,4.15
2023-04-16T22:27:41.333Z,7.43
2023-04-16T22:30:10.488Z,6.40
2023-04-16T22:32:39.093Z,3.67
2023-04-16T22:35:08.553Z,8.60
2023-04-16T22:37:37.728Z,6.50
2023-04-16T22:40:09.188Z,3.95
2023-04-16T22:42:38.664Z,5.63
2023-04-16T22:45:08.076Z,5.00
2023-04-16T22:47:40.004Z,5.20
2023-04-16T22:50:09.334Z,6.30
2023-04-16T22:52:38.148Z,7.35
2023-04-16T22:55:09.912Z,9.02
2023-04-16T22:57:38.406Z,6.60
2023-04-16T23:00:10.603Z,7.10
2023-04-16T23:02:39.250Z,6.32
2023-04-16T23:05:08.495Z,5.85
2023-04-16T23:07:37.139Z,10.77
2023-04-16T23:10:06.330Z,7.85
2023-04-16T23:12:37.893Z,6.60
2023-04-16T23:15:07.226Z,5.40
2023-04-16T23:17:36.042Z,8.10
2023-04-16T23:20:06.177Z,10.40
2023-04-16T23:22:34.934Z,6.25
2023-04-16T23:25:03.460Z,9.90
2023-04-16T23:27:33.245Z,62.10
2023-04-16T23:30:02.086Z,50.53
2023-04-16T23:32:30.814Z,27.30
2023-04-16T23:34:59.516Z,23.58
2023-04-16T23:37:28.271Z,26.60
2023-04-16T23:39:56.964Z,25.33
2023-04-16T23:42:25.614Z,17.10
2023-04-16T23:44:54.293Z,31.92
2023-04-16T23:47:22.850Z,17.00
2023-04-16T23:49:51.817Z,31.48
2023-04-16T23:52:20.381Z,26.15
2023-04-16T23:54:49.109Z,31.83
2023-04-16T23:57:17.821Z,23.83
2023-04-16T23:59:46.459Z,20.98
